createdAt,value
2023-05-06T00:00:11.168Z,205.09
2023-05-06T00:01:11.239Z,207.48
2023-05-06T00:02:11.295Z,209.68
2023-05-06T00:03:11.387Z,205.19
2023-05-06T00:04:11.500Z,208.05
2023-05-06T00:05:11.865Z,207.44
2023-05-06T00:06:11.548Z,208.10
2023-05-06T00:07:11.598Z,207.93
2023-05-06T00:08:11.638Z,206.73
2023-05-06T00:09:11.704Z,207.50
2023-05-06T00:10:11.753Z,207.88
2023-05-06T00:11:11.817Z,208.01
2023-05-06T00:12:11.882Z,207.40
2023-05-06T00:13:11.991Z,206.56
2023-05-06T00:14:11.985Z,205.65
2023-05-06T00:15:12.237Z,207.05
2023-05-06T00:16:12.142Z,209.37
2023-05-06T00:17:12.151Z,206.49
2023-05-06T00:18:12.219Z,208.48
2023-05-06T00:19:12.303Z,208.14
2023-05-06T00:20:12.427Z,208.53
2023-05-06T00:21:12.392Z,209.03
2023-05-06T00:22:12.438Z,206.93
2023-05-06T00:23:12.500Z,208.01
2023-05-06T00:24:12.560Z,207.81
2023-05-06T00:25:12.615Z,207.50
2023-05-06T00:26:12.626Z,208.96
2023-05-06T00:27:12.713Z,209.31
2023-05-06T00:28:13.289Z,206.97
2023-05-06T00:29:12.797Z,208.05
2023-05-06T00:30:12.895Z,207.40
2023-05-06T00:31:12.915Z,210.26
2023-05-06T00:32:13.118Z,208.50
2023-05-06T00:33:13.048Z,209.19
2023-05-06T00:34:13.085Z,208.64
2023-05-06T00:35:13.155Z,206.47
2023-05-06T00:36:13.308Z,208.79
2023-05-06T00:37:13.274Z,208.46
2023-05-06T00:38:13.313Z,206.32
2023-05-06T00:39:13.378Z,208.33
2023-05-06T00:40:13.430Z,208.51
2023-05-06T00:41:13.506Z,208.07
2023-05-06T00:42:13.566Z,209.30
2023-05-06T00:43:13.605Z,210.16
2023-05-06T00:44:13.672Z,208.91
2023-05-06T00:45:13.713Z,210.22
2023-05-06T00:46:13.790Z,208.36
2023-05-06T00:47:13.816Z,210.12
2023-05-06T00:48:13.980Z,208.68
2023-05-06T00:49:13.964Z,209.51
2023-05-06T00:50:14.008Z,206.70
2023-05-06T00:51:14.074Z,209.45
2023-05-06T00:52:14.118Z,209.04
2023-05-06T00:53:14.190Z,209.48
2023-05-06T00:54:14.212Z,209.32
2023-05-06T00:55:14.292Z,209.12
2023-05-06T00:56:14.348Z,210.79
2023-05-06T00:57:14.416Z,208.95
2023-05-06T00:58:14.481Z,208.86
2023-05-06T00:59:14.565Z,210.69
2023-05-06T01:00:14.595Z,210.28
2023-05-06T01:01:14.723Z,208.74
2023-05-06T01:02:14.835Z,210.31
2023-05-06T01:03:14.865Z,211.72
2023-05-06T01:04:14.824Z,210.18
2023-05-06T01:05:14.950Z,210.39
2023-05-06T01:06:14.953Z,210.55
2023-05-06T01:07:14.993Z,208.86
2023-05-06T01:08:15.136Z,210.53
2023-05-06T01:09:15.109Z,211.17
2023-05-06T01:10:15.182Z,210.34
2023-05-06T01:11:15.946Z,211.34
2023-05-06T01:12:16.304Z,207.83
2023-05-06T01:13:15.478Z,211.13
2023-05-06T01:14:15.435Z,210.26
2023-05-06T01:15:15.470Z,212.03
2023-05-06T01:16:15.563Z,210.72
2023-05-06T01:17:15.644Z,210.98
2023-05-06T01:18:15.639Z,209.22
2023-05-06T01:19:15.741Z,213.67
2023-05-06T01:20:15.752Z,211.41
2023-05-06T01:21:15.828Z,210.33
2023-05-06T01:22:15.850Z,209.61
2023-05-06T01:23:15.945Z,211.24
2023-05-06T01:24:16.053Z,210.16
2023-05-06T01:25:16.027Z,211.17
2023-05-06T01:26:16.319Z,210.04
2023-05-06T01:27:16.149Z,211.46
2023-05-06T01:28:16.276Z,212.26
2023-05-06T01:29:16.321Z,211.42
2023-05-06T01:30:16.352Z,211.24
2023-05-06T01:31:16.519Z,212.52
2023-05-06T01:32:16.465Z,210.84
2023-05-06T01:33:16.559Z,210.78
2023-05-06T01:34:16.617Z,211.25
2023-05-06T01:35:16.661Z,211.46
2023-05-06T01:36:16.727Z,212.87
2023-05-06T01:37:16.773Z,211.89
2023-05-06T01:38:16.819Z,209.31
2023-05-06T01:39:16.916Z,210.19
2023-05-06T01:40:16.948Z,211.49
2023-05-06T01:41:17.020Z,211.55
2023-05-06T01:42:17.071Z,211.29
2023-05-06T01:43:17.108Z,209.46
2023-05-06T01:44:17.179Z,213.00
2023-05-06T01:45:17.263Z,212.06
2023-05-06T01:46:17.369Z,212.53
2023-05-06T01:47:17.374Z,212.66
2023-05-06T01:48:17.420Z,213.26
2023-05-06T01:49:17.469Z,212.12
2023-05-06T01:50:17.546Z,213.66
2023-05-06T01:51:17.579Z,212.14
2023-05-06T01:52:17.653Z,211.97
2023-05-06T01:53:17.713Z,212.56
2023-05-06T01:54:17.780Z,213.36
2023-05-06T01:55:17.850Z,211.25
2023-05-06T01:56:17.906Z,212.27
2023-05-06T01:57:17.960Z,211.34
2023-05-06T01:58:18.005Z,210.82
2023-05-06T01:59:18.060Z,213.27
2023-05-06T02:00:18.164Z,211.46
2023-05-06T02:01:18.191Z,215.03
2023-05-06T02:02:18.243Z,210.81
2023-05-06T02:03:18.404Z,210.56
2023-05-06T02:04:18.390Z,214.41
2023-05-06T02:05:18.413Z,212.83
2023-05-06T02:06:18.507Z,212.19
2023-05-06T02:07:18.542Z,212.86
2023-05-06T02:08:18.594Z,212.18
2023-05-06T02:09:18.670Z,213.42
2023-05-06T02:10:18.725Z,214.65
2023-05-06T02:11:18.786Z,212.06
2023-05-06T02:12:18.883Z,211.81
2023-05-06T02:13:18.913Z,210.17
2023-05-06T02:14:18.941Z,212.91
2023-05-06T02:15:19.002Z,213.35
2023-05-06T02:16:19.108Z,211.84
2023-05-06T02:17:19.129Z,211.67
2023-05-06T02:18:19.155Z,212.13
2023-05-06T02:19:19.204Z,213.27
2023-05-06T02:20:19.280Z,212.52
2023-05-06T02:21:19.357Z,213.39
2023-05-06T02:22:19.377Z,214.14
2023-05-06T02:23:19.473Z,213.59
2023-05-06T02:24:19.521Z,212.05
2023-05-06T02:25:19.557Z,213.04
2023-05-06T02:26:19.635Z,211.91
2023-05-06T02:27:19.693Z,213.51
2023-05-06T02:28:19.814Z,211.88
2023-05-06T02:29:19.794Z,213.47
2023-05-06T02:30:19.841Z,214.12
2023-05-06T02:31:19.931Z,213.99
2023-05-06T02:32:19.953Z,213.76
2023-05-06T02:33:19.988Z,212.91
2023-05-06T02:34:20.068Z,212.14
2023-05-06T02:35:20.124Z,211.98
2023-05-06T02:36:20.183Z,213.80
2023-05-06T02:37:20.247Z,212.42
2023-05-06T02:38:20.283Z,213.17
2023-05-06T02:39:20.334Z,213.19
2023-05-06T02:40:20.436Z,212.64
2023-05-06T02:41:20.449Z,213.96
2023-05-06T02:42:20.532Z,213.97
2023-05-06T02:43:20.585Z,213.72
2023-05-06T02:44:20.619Z,212.36
2023-05-06T02:45:21.332Z,212.44
2023-05-06T02:46:20.790Z,212.98
2023-05-06T02:47:20.846Z,212.28
2023-05-06T02:48:20.855Z,214.35
2023-05-06T02:49:20.903Z,213.38
2023-05-06T02:50:20.975Z,213.83
2023-05-06T02:51:21.016Z,213.41
2023-05-06T02:52:21.073Z,214.71
2023-05-06T02:53:21.138Z,212.28
2023-05-06T02:54:21.146Z,211.75
2023-05-06T02:55:21.198Z,215.66
2023-05-06T02:56:21.255Z,212.99
2023-05-06T02:57:21.308Z,212.41
2023-05-06T02:58:21.354Z,211.70
2023-05-06T02:59:21.411Z,212.17
2023-05-06T03:00:21.519Z,211.61
2023-05-06T03:01:21.554Z,213.62
2023-05-06T03:02:21.599Z,211.84
2023-05-06T03:03:21.629Z,211.24
2023-05-06T03:04:21.729Z,214.24
2023-05-06T03:05:21.742Z,211.77
2023-05-06T03:06:21.790Z,212.85
2023-05-06T03:07:21.863Z,214.25
2023-05-06T03:08:21.960Z,213.41
2023-05-06T03:09:21.945Z,213.79
2023-05-06T03:10:22.000Z,213.43
2023-05-06T03:11:22.051Z,213.10
2023-05-06T03:12:22.154Z,213.87
2023-05-06T03:13:22.252Z,215.10
2023-05-06T03:14:22.263Z,212.91
2023-05-06T03:15:22.298Z,212.73
2023-05-06T03:16:22.393Z,213.55
2023-05-06T03:17:22.416Z,214.67
2023-05-06T03:18:22.471Z,213.06
2023-05-06T03:19:22.508Z,214.28
2023-05-06T03:20:22.562Z,212.55
2023-05-06T03:21:22.736Z,212.56
2023-05-06T03:22:22.679Z,213.08
2023-05-06T03:23:22.749Z,212.65
2023-05-06T03:24:22.797Z,212.85
2023-05-06T03:25:22.856Z,212.06
2023-05-06T03:26:22.923Z,211.43
2023-05-06T03:27:22.983Z,212.61
2023-05-06T03:28:23.022Z,213.04
2023-05-06T03:29:23.059Z,211.51
2023-05-06T03:30:23.178Z,213.54
2023-05-06T03:31:23.379Z,214.54
2023-05-06T03:32:23.373Z,212.47
2023-05-06T03:33:23.319Z,213.15
2023-05-06T03:34:23.390Z,213.58
2023-05-06T03:35:23.430Z,213.65
2023-05-06T03:36:23.493Z,211.84
2023-05-06T03:37:23.557Z,214.09
2023-05-06T03:38:23.613Z,212.15
2023-05-06T03:39:23.679Z,214.30
2023-05-06T03:40:23.747Z,213.66
2023-05-06T03:41:23.781Z,212.99
2023-05-06T03:42:23.846Z,213.10
2023-05-06T03:43:23.881Z,213.99
2023-05-06T03:44:23.911Z,213.70
2023-05-06T03:45:23.984Z,213.38
2023-05-06T03:46:24.097Z,212.57
2023-05-06T03:47:24.121Z,211.67
2023-05-06T03:48:24.151Z,214.22
2023-05-06T03:49:24.200Z,215.58
2023-05-06T03:50:24.278Z,213.92
2023-05-06T03:51:24.333Z,214.35
2023-05-06T03:52:24.379Z,215.30
2023-05-06T03:53:24.439Z,213.00
2023-05-06T03:54:24.499Z,212.46
2023-05-06T03:55:24.575Z,214.05
2023-05-06T03:56:24.669Z,213.78
2023-05-06T03:57:24.665Z,214.65
2023-05-06T03:58:24.688Z,214.05
2023-05-06T03:59:24.769Z,213.80
2023-05-06T04:00:24.846Z,213.89
2023-05-06T04:01:24.898Z,213.26
2023-05-06T04:02:25.062Z,213.64
2023-05-06T04:03:25.092Z,214.94
2023-05-06T04:04:25.109Z,215.37
2023-05-06T04:05:25.106Z,213.81
2023-05-06T04:06:25.174Z,213.97
2023-05-06T04:07:25.198Z,214.18
2023-05-06T04:08:25.285Z,215.37
2023-05-06T04:09:25.331Z,214.85
2023-05-06T04:10:25.415Z,213.27
2023-05-06T04:11:25.442Z,213.84
2023-05-06T04:12:25.472Z,214.19
2023-05-06T04:13:25.545Z,215.17
2023-05-06T04:14:25.589Z,214.87
2023-05-06T04:15:25.640Z,215.49
2023-05-06T04:16:25.755Z,213.07
2023-05-06T04:17:25.886Z,213.50
2023-05-06T04:18:25.824Z,213.18
2023-05-06T04:19:25.864Z,212.25
2023-05-06T04:20:25.907Z,212.34
2023-05-06T04:21:25.985Z,214.10
2023-05-06T04:22:26.011Z,213.51
2023-05-06T04:23:26.092Z,213.86
2023-05-06T04:24:26.172Z,213.67
2023-05-06T04:25:26.173Z,214.33
2023-05-06T04:26:26.274Z,213.63
2023-05-06T04:27:26.317Z,212.89
2023-05-06T04:28:26.369Z,212.43
2023-05-06T04:29:26.404Z,212.68
2023-05-06T04:30:26.496Z,213.71
2023-05-06T04:31:26.572Z,213.05
2023-05-06T04:32:26.564Z,213.88
2023-05-06T04:33:26.645Z,212.15
2023-05-06T04:34:26.716Z,213.79
2023-05-06T04:35:26.748Z,213.13
2023-05-06T04:36:26.824Z,212.45
2023-05-06T04:37:26.860Z,214.31
2023-05-06T04:38:26.931Z,212.55
2023-05-06T04:39:26.963Z,213.33
2023-05-06T04:40:27.001Z,213.19
2023-05-06T04:41:27.098Z,209.99
2023-05-06T04:42:27.142Z,213.69
2023-05-06T04:43:27.187Z,212.45
2023-05-06T04:44:27.261Z,215.52
2023-05-06T04:45:27.319Z,212.18
2023-05-06T04:46:27.360Z,213.69
2023-05-06T04:47:27.459Z,211.24
2023-05-06T04:48:27.457Z,215.78
2023-05-06T04:49:27.497Z,214.15
2023-05-06T04:50:27.564Z,213.20
2023-05-06T04:51:27.660Z,213.48
2023-05-06T04:52:27.725Z,214.07
2023-05-06T04:53:27.763Z,212.78
2023-05-06T04:54:27.821Z,211.42
2023-05-06T04:55:27.890Z,212.68
2023-05-06T04:56:27.904Z,213.63
2023-05-06T04:57:27.968Z,211.83
2023-05-06T04:58:28.007Z,213.10
2023-05-06T04:59:28.046Z,212.98
2023-05-06T05:00:28.129Z,210.54
2023-05-06T05:01:28.237Z,212.27
2023-05-06T05:02:28.272Z,212.39
2023-05-06T05:03:28.516Z,213.95
2023-05-06T05:04:28.294Z,213.05
2023-05-06T05:05:28.368Z,213.31
2023-05-06T05:06:28.417Z,215.09
2023-05-06T05:07:28.491Z,212.23
2023-05-06T05:08:28.542Z,213.40
2023-05-06T05:09:28.612Z,214.02
2023-05-06T05:10:28.643Z,214.04
2023-05-06T05:11:28.712Z,214.03
2023-05-06T05:12:28.728Z,211.53
2023-05-06T05:13:28.820Z,214.39
2023-05-06T05:14:28.882Z,212.88
2023-05-06T05:15:28.917Z,212.07
2023-05-06T05:16:29.140Z,211.18
2023-05-06T05:17:29.049Z,212.84
2023-05-06T05:18:29.145Z,212.27
2023-05-06T05:19:29.149Z,212.55
2023-05-06T05:20:29.177Z,212.03
2023-05-06T05:21:29.254Z,213.10
2023-05-06T05:22:29.300Z,213.37
2023-05-06T05:23:29.378Z,212.05
2023-05-06T05:24:29.466Z,212.43
2023-05-06T05:25:29.455Z,212.50
2023-05-06T05:26:29.523Z,211.64
2023-05-06T05:27:29.573Z,211.74
2023-05-06T05:28:29.632Z,212.29
2023-05-06T05:29:29.699Z,213.61
2023-05-06T05:30:29.767Z,211.06
2023-05-06T05:31:29.834Z,211.85
2023-05-06T05:32:29.885Z,212.81
2023-05-06T05:33:29.989Z,212.47
2023-05-06T05:34:29.997Z,212.62
2023-05-06T05:35:30.010Z,212.48
2023-05-06T05:36:30.090Z,213.67
2023-05-06T05:37:30.136Z,212.08
2023-05-06T05:38:30.207Z,211.45
2023-05-06T05:39:30.238Z,212.08
2023-05-06T05:40:30.318Z,212.80
2023-05-06T05:41:30.442Z,213.25
2023-05-06T05:42:30.440Z,211.16
2023-05-06T05:43:30.507Z,209.50
2023-05-06T05:44:30.524Z,210.65
2023-05-06T05:45:30.575Z,210.56
2023-05-06T05:46:30.666Z,213.91
2023-05-06T05:47:30.713Z,213.52
2023-05-06T05:48:30.771Z,211.82
2023-05-06T05:49:30.839Z,212.27
2023-05-06T05:50:30.907Z,214.73
2023-05-06T05:51:30.958Z,211.07
2023-05-06T05:52:31.033Z,212.11
2023-05-06T05:53:31.052Z,212.18
2023-05-06T05:54:31.138Z,213.78
2023-05-06T05:55:31.146Z,214.36
2023-05-06T05:56:31.304Z,212.97
2023-05-06T05:57:31.306Z,212.52
2023-05-06T05:58:31.318Z,211.62
2023-05-06T05:59:31.396Z,213.10
2023-05-06T06:00:31.435Z,213.45
2023-05-06T06:01:31.475Z,209.89
2023-05-06T06:02:31.688Z,212.75
2023-05-06T06:03:31.774Z,212.65
2023-05-06T06:04:31.720Z,212.98
2023-05-06T06:05:31.763Z,212.60
2023-05-06T06:06:31.797Z,211.36
2023-05-06T06:07:31.850Z,208.62
2023-05-06T06:08:31.934Z,211.86
2023-05-06T06:09:31.979Z,213.74
2023-05-06T06:10:32.024Z,210.75
2023-05-06T06:11:32.100Z,212.55
2023-05-06T06:12:32.162Z,211.06
2023-05-06T06:13:32.354Z,213.86
2023-05-06T06:14:32.258Z,213.61
2023-05-06T06:15:32.336Z,209.85
2023-05-06T06:16:32.479Z,212.23
2023-05-06T06:17:32.446Z,212.61
2023-05-06T06:18:32.492Z,214.30
2023-05-06T06:19:32.509Z,213.95
2023-05-06T06:20:32.604Z,212.98
2023-05-06T06:21:32.670Z,211.68
2023-05-06T06:22:32.725Z,210.94
2023-05-06T06:23:32.766Z,213.57
2023-05-06T06:24:32.811Z,213.25
2023-05-06T06:25:32.849Z,214.43
2023-05-06T06:26:32.914Z,213.05
2023-05-06T06:27:32.973Z,214.56
2023-05-06T06:28:33.099Z,212.29
2023-05-06T06:29:33.114Z,213.87
2023-05-06T06:30:33.156Z,213.04
2023-05-06T06:31:33.259Z,212.95
2023-05-06T06:32:33.279Z,212.40
2023-05-06T06:33:33.315Z,213.51
2023-05-06T06:34:33.387Z,213.22
2023-05-06T06:35:33.452Z,211.46
2023-05-06T06:36:33.515Z,210.38
2023-05-06T06:37:33.558Z,212.99
2023-05-06T06:38:33.615Z,213.59
2023-05-06T06:39:33.662Z,213.43
2023-05-06T06:40:33.727Z,211.29
2023-05-06T06:41:33.761Z,211.27
2023-05-06T06:42:33.835Z,212.39
2023-05-06T06:43:33.887Z,210.78
2023-05-06T06:44:33.942Z,212.40
2023-05-06T06:45:34.071Z,212.04
2023-05-06T06:46:34.073Z,212.00
2023-05-06T06:47:34.112Z,212.46
2023-05-06T06:48:34.157Z,211.42
2023-05-06T06:49:34.244Z,214.93
2023-05-06T06:50:34.304Z,211.27
2023-05-06T06:51:34.354Z,211.31
2023-05-06T06:52:34.410Z,212.24
2023-05-06T06:53:34.487Z,211.59
2023-05-06T06:54:34.539Z,213.39
2023-05-06T06:55:34.579Z,215.19
2023-05-06T06:56:34.649Z,212.68
2023-05-06T06:57:34.703Z,213.63
2023-05-06T06:58:34.770Z,210.71
2023-05-06T06:59:34.808Z,210.73
2023-05-06T07:00:34.943Z,212.96
2023-05-06T07:01:35.001Z,211.49
2023-05-06T07:02:35.067Z,212.27
2023-05-06T07:03:35.048Z,213.23
2023-05-06T07:04:35.143Z,212.46
2023-05-06T07:05:35.222Z,215.25
2023-05-06T07:06:35.285Z,210.06
2023-05-06T07:07:35.287Z,211.88
2023-05-06T07:08:35.353Z,210.26
2023-05-06T07:09:35.763Z,211.18
2023-05-06T07:10:35.472Z,212.64
2023-05-06T07:11:35.532Z,211.10
2023-05-06T07:12:35.645Z,210.86
2023-05-06T07:13:35.635Z,211.23
2023-05-06T07:14:35.669Z,210.62
2023-05-06T07:15:35.729Z,209.94
2023-05-06T07:16:35.823Z,209.16
2023-05-06T07:17:35.931Z,212.32
2023-05-06T07:18:35.878Z,211.26
2023-05-06T07:19:35.941Z,210.98
2023-05-06T07:20:35.970Z,209.05
2023-05-06T07:21:36.023Z,210.17
2023-05-06T07:22:36.094Z,209.73
2023-05-06T07:23:36.149Z,207.18
2023-05-06T07:24:36.182Z,208.03
2023-05-06T07:25:36.241Z,210.64
2023-05-06T07:26:36.272Z,207.59
2023-05-06T07:27:36.329Z,206.63
2023-05-06T07:28:36.404Z,208.94
2023-05-06T07:29:36.453Z,208.21
2023-05-06T07:30:36.497Z,209.75
2023-05-06T07:31:36.585Z,206.46
2023-05-06T07:32:36.643Z,206.78
2023-05-06T07:33:36.581Z,205.91
2023-05-06T07:34:36.641Z,204.58
2023-05-06T07:35:36.658Z,206.23
2023-05-06T07:36:39.921Z,205.41
2023-05-06T07:37:36.679Z,207.34
2023-05-06T07:38:36.698Z,204.91
2023-05-06T07:39:36.689Z,204.96
2023-05-06T07:40:36.676Z,203.57
2023-05-06T07:41:36.704Z,202.74
2023-05-06T07:42:36.697Z,200.46
2023-05-06T07:43:36.711Z,200.15
2023-05-06T07:44:36.647Z,201.78
2023-05-06T07:45:36.706Z,200.55
2023-05-06T07:46:36.736Z,200.12
2023-05-06T07:47:36.721Z,200.65
2023-05-06T07:48:36.745Z,197.24
2023-05-06T07:49:36.657Z,196.49
2023-05-06T07:50:36.654Z,198.65
2023-05-06T07:51:36.631Z,196.89
2023-05-06T07:52:36.583Z,197.20
2023-05-06T07:53:36.589Z,198.02
2023-05-06T07:54:36.572Z,197.18
2023-05-06T07:55:36.584Z,196.49
2023-05-06T07:56:36.553Z,197.66
2023-05-06T07:57:36.581Z,201.48
2023-05-06T07:58:36.555Z,198.67
2023-05-06T07:59:36.565Z,198.29
2023-05-06T08:00:36.551Z,199.85
2023-05-06T08:01:36.542Z,198.87
2023-05-06T08:02:36.705Z,202.09
2023-05-06T08:03:36.673Z,202.14
2023-05-06T08:04:36.670Z,202.83
2023-05-06T08:05:36.535Z,200.58
2023-05-06T08:06:36.505Z,198.96
2023-05-06T08:07:36.490Z,201.13
2023-05-06T08:08:36.502Z,200.97
2023-05-06T08:09:36.509Z,201.41
2023-05-06T08:10:36.471Z,201.06
2023-05-06T08:11:36.472Z,201.61
2023-05-06T08:12:36.511Z,203.23
2023-05-06T08:13:36.492Z,202.06
2023-05-06T08:14:36.438Z,202.63
2023-05-06T08:15:36.449Z,200.76
2023-05-06T08:16:36.454Z,202.57
2023-05-06T08:17:36.457Z,202.75
2023-05-06T08:18:36.416Z,201.94
2023-05-06T08:19:36.442Z,203.36
2023-05-06T08:20:36.498Z,203.57
2023-05-06T08:21:36.388Z,202.40
2023-05-06T08:22:36.423Z,200.95
2023-05-06T08:23:36.391Z,202.38
2023-05-06T08:24:36.396Z,200.54
2023-05-06T08:25:36.361Z,202.46
2023-05-06T08:26:36.376Z,201.40
2023-05-06T08:27:36.361Z,204.08
2023-05-06T08:28:36.366Z,202.68
2023-05-06T08:29:36.337Z,199.09
2023-05-06T08:30:36.320Z,201.00
2023-05-06T08:31:36.442Z,201.25
2023-05-06T08:32:36.411Z,202.95
2023-05-06T08:33:36.325Z,199.78
2023-05-06T08:34:36.323Z,198.74
2023-05-06T08:35:36.333Z,201.09
2023-05-06T08:36:36.354Z,199.80
2023-05-06T08:37:36.296Z,203.20
2023-05-06T08:38:36.290Z,202.24
2023-05-06T08:39:36.316Z,200.79
2023-05-06T08:40:36.272Z,201.85
2023-05-06T08:41:36.256Z,203.82
2023-05-06T08:42:36.268Z,201.56
2023-05-06T08:43:36.262Z,201.50
2023-05-06T08:44:36.264Z,202.71
2023-05-06T08:45:36.273Z,202.51
2023-05-06T08:46:36.222Z,204.05
2023-05-06T08:47:36.275Z,202.49
2023-05-06T08:48:36.216Z,203.14
2023-05-06T08:49:36.200Z,203.45
2023-05-06T08:50:36.198Z,202.14
2023-05-06T08:51:36.213Z,204.24
2023-05-06T08:52:36.327Z,204.18
2023-05-06T08:53:36.162Z,203.84
2023-05-06T08:54:36.185Z,203.62
2023-05-06T08:55:36.182Z,203.32
2023-05-06T08:56:36.184Z,202.48
2023-05-06T08:57:36.143Z,202.18
2023-05-06T08:58:36.153Z,205.02
2023-05-06T08:59:36.135Z,201.64
2023-05-06T09:00:36.137Z,202.66
2023-05-06T09:01:36.154Z,205.27
2023-05-06T09:02:36.151Z,202.93
2023-05-06T09:03:36.157Z,202.77
2023-05-06T09:04:36.085Z,203.86
2023-05-06T09:05:36.091Z,203.39
2023-05-06T09:06:36.129Z,202.02
2023-05-06T09:07:36.111Z,204.26
2023-05-06T09:08:36.163Z,204.77
2023-05-06T09:09:36.044Z,202.89
2023-05-06T09:10:36.070Z,204.57
2023-05-06T09:11:36.102Z,204.60
2023-05-06T09:12:36.043Z,201.84
2023-05-06T09:13:36.050Z,206.37
2023-05-06T09:14:36.025Z,205.49
2023-05-06T09:15:36.032Z,205.61
2023-05-06T09:16:36.026Z,205.44
2023-05-06T09:17:36.053Z,206.85
2023-05-06T09:18:36.009Z,205.81
2023-05-06T09:19:36.001Z,204.67
2023-05-06T09:20:36.034Z,207.59
2023-05-06T09:21:36.009Z,208.13
2023-05-06T09:22:36.015Z,207.39
2023-05-06T09:23:36.001Z,206.58
2023-05-06T09:24:36.072Z,207.06
2023-05-06T09:25:36.047Z,206.51
2023-05-06T09:26:36.120Z,209.56
2023-05-06T09:27:36.120Z,208.12
2023-05-06T09:28:36.095Z,207.57
2023-05-06T09:29:36.142Z,209.65
2023-05-06T09:30:36.144Z,209.26
2023-05-06T09:31:36.228Z,208.82
2023-05-06T09:32:39.098Z,209.21
2023-05-06T09:33:36.202Z,211.30
2023-05-06T09:34:36.175Z,209.83
2023-05-06T09:35:36.166Z,208.38
2023-05-06T09:36:36.177Z,210.72
2023-05-06T09:37:36.196Z,207.99
2023-05-06T09:38:36.139Z,209.17
2023-05-06T09:39:36.154Z,210.72
2023-05-06T09:40:36.147Z,208.47
2023-05-06T09:41:36.129Z,208.06
2023-05-06T09:42:36.130Z,211.15
2023-05-06T09:43:36.174Z,207.61
2023-05-06T09:44:36.118Z,211.63
2023-05-06T09:45:36.103Z,206.59
2023-05-06T09:46:36.199Z,210.03
2023-05-06T09:47:36.109Z,208.26
2023-05-06T09:48:36.112Z,211.54
2023-05-06T09:49:36.109Z,208.98
2023-05-06T09:50:36.099Z,211.92
2023-05-06T09:51:36.092Z,210.47
2023-05-06T09:52:36.056Z,211.26
2023-05-06T09:53:36.084Z,209.54
2023-05-06T09:54:36.055Z,209.67
2023-05-06T09:55:36.037Z,211.10
2023-05-06T09:56:36.110Z,210.14
2023-05-06T09:57:36.036Z,211.70
2023-05-06T09:58:36.055Z,209.48
2023-05-06T09:59:36.022Z,210.00
2023-05-06T10:00:36.013Z,212.78
2023-05-06T10:01:37.675Z,210.52
2023-05-06T10:02:36.089Z,211.81
2023-05-06T10:03:36.113Z,208.75
2023-05-06T10:04:36.246Z,209.28
2023-05-06T10:05:35.956Z,207.62
2023-05-06T10:06:35.961Z,207.75
2023-05-06T10:07:35.989Z,207.08
2023-05-06T10:08:35.940Z,207.79
2023-05-06T10:09:35.974Z,208.90
2023-05-06T10:10:35.955Z,206.48
2023-05-06T10:11:35.935Z,208.12
2023-05-06T10:12:36.067Z,207.83
2023-05-06T10:13:35.902Z,208.29
2023-05-06T10:14:35.920Z,203.81
2023-05-06T10:15:35.920Z,208.36
2023-05-06T10:16:35.963Z,206.66
2023-05-06T10:17:35.963Z,206.56
2023-05-06T10:18:35.892Z,205.89
2023-05-06T10:19:35.899Z,208.08
2023-05-06T10:20:35.867Z,208.38
2023-05-06T10:21:35.904Z,205.62
2023-05-06T10:22:35.874Z,206.55
2023-05-06T10:23:35.888Z,208.15
2023-05-06T10:24:35.919Z,207.48
2023-05-06T10:25:35.950Z,208.55
2023-05-06T10:26:35.992Z,208.34
2023-05-06T10:27:35.960Z,206.32
2023-05-06T10:28:36.060Z,207.44
2023-05-06T10:29:35.999Z,206.02
2023-05-06T10:30:36.028Z,205.97
2023-05-06T10:31:36.078Z,206.23
2023-05-06T10:32:36.073Z,206.73
2023-05-06T10:33:36.053Z,206.75
2023-05-06T10:34:36.074Z,208.48
2023-05-06T10:35:36.097Z,205.84
2023-05-06T10:36:36.100Z,206.28
2023-05-06T10:37:36.133Z,204.87
2023-05-06T10:38:36.112Z,204.90
2023-05-06T10:39:36.122Z,206.86
2023-05-06T10:40:36.147Z,205.39
2023-05-06T10:41:36.175Z,205.12
2023-05-06T10:42:36.205Z,203.38
2023-05-06T10:43:36.210Z,202.56
2023-05-06T10:44:36.264Z,202.95
2023-05-06T10:45:36.237Z,205.82
2023-05-06T10:46:36.243Z,205.36
2023-05-06T10:47:36.290Z,201.93
2023-05-06T10:48:36.290Z,206.78
2023-05-06T10:49:36.312Z,207.55
2023-05-06T10:50:36.341Z,205.25
2023-05-06T10:51:36.334Z,205.94
2023-05-06T10:52:36.341Z,206.43
2023-05-06T10:53:36.362Z,205.95
2023-05-06T10:54:36.375Z,205.91
2023-05-06T10:55:36.382Z,204.85
2023-05-06T10:56:36.415Z,208.38
2023-05-06T10:57:36.427Z,205.39
2023-05-06T10:58:36.450Z,206.33
2023-05-06T10:59:36.437Z,206.57
2023-05-06T11:00:36.447Z,206.55
2023-05-06T11:01:36.611Z,206.67
2023-05-06T11:02:36.597Z,207.82
2023-05-06T11:03:36.661Z,206.53
2023-05-06T11:04:36.550Z,206.41
2023-05-06T11:05:36.536Z,207.02
2023-05-06T11:06:36.553Z,208.01
2023-05-06T11:07:36.549Z,206.41
2023-05-06T11:08:36.621Z,204.06
2023-05-06T11:09:36.611Z,206.83
2023-05-06T11:10:36.607Z,207.15
2023-05-06T11:11:36.631Z,206.67
2023-05-06T11:12:36.692Z,205.31
2023-05-06T11:13:36.654Z,204.64
2023-05-06T11:14:36.685Z,207.01
2023-05-06T11:15:36.681Z,202.79
2023-05-06T11:16:38.639Z,204.04
2023-05-06T11:17:36.727Z,205.93
2023-05-06T11:18:36.748Z,205.03
2023-05-06T11:19:36.752Z,203.14
2023-05-06T11:20:36.775Z,205.73
2023-05-06T11:21:36.753Z,205.37
2023-05-06T11:22:36.802Z,202.95
2023-05-06T11:23:36.792Z,204.75
2023-05-06T11:24:36.820Z,204.20
2023-05-06T11:25:36.846Z,204.37
2023-05-06T11:26:36.828Z,200.96
2023-05-06T11:27:36.865Z,202.29
2023-05-06T11:28:36.866Z,203.67
2023-05-06T11:29:36.903Z,204.11
2023-05-06T11:30:36.909Z,204.29
2023-05-06T11:31:36.963Z,202.22
2023-05-06T11:32:37.009Z,205.38
2023-05-06T11:33:36.891Z,203.86
2023-05-06T11:34:36.916Z,202.92
2023-05-06T11:35:36.948Z,205.91
2023-05-06T11:36:36.939Z,205.29
2023-05-06T11:37:37.002Z,206.80
2023-05-06T11:38:36.965Z,206.19
2023-05-06T11:39:40.529Z,207.11
2023-05-06T11:40:36.969Z,207.18
2023-05-06T11:41:36.990Z,206.88
2023-05-06T11:42:36.955Z,206.89
2023-05-06T11:43:36.996Z,207.16
2023-05-06T11:44:36.956Z,205.81
2023-05-06T11:45:36.969Z,207.26
2023-05-06T11:46:36.962Z,205.27
2023-05-06T11:47:36.979Z,204.51
2023-05-06T11:48:37.014Z,205.80
2023-05-06T11:49:36.970Z,205.77
2023-05-06T11:50:36.907Z,201.94
2023-05-06T11:51:36.909Z,205.32
2023-05-06T11:52:36.924Z,200.19
2023-05-06T11:53:36.905Z,201.39
2023-05-06T11:54:36.879Z,204.01
2023-05-06T11:55:36.876Z,203.72
2023-05-06T11:56:36.845Z,205.14
2023-05-06T11:57:36.887Z,202.89
2023-05-06T11:58:36.873Z,200.38
2023-05-06T11:59:36.823Z,202.00
2023-05-06T12:00:36.839Z,201.38
2023-05-06T12:01:36.843Z,200.71
2023-05-06T12:02:36.866Z,201.98
2023-05-06T12:03:36.941Z,205.67
2023-05-06T12:04:36.904Z,201.70
2023-05-06T12:05:36.796Z,201.08
2023-05-06T12:06:36.813Z,203.28
2023-05-06T12:07:36.790Z,202.97
2023-05-06T12:08:36.785Z,203.62
2023-05-06T12:09:36.751Z,199.97
2023-05-06T12:10:36.768Z,200.07
2023-05-06T12:11:36.776Z,200.93
2023-05-06T12:12:36.771Z,201.35
2023-05-06T12:13:36.997Z,200.93
2023-05-06T12:14:36.749Z,199.66
2023-05-06T12:15:36.742Z,201.28
2023-05-06T12:16:36.739Z,200.12
2023-05-06T12:17:36.787Z,199.72
2023-05-06T12:18:36.711Z,202.93
2023-05-06T12:19:36.683Z,202.47
2023-05-06T12:20:36.772Z,200.57
2023-05-06T12:21:36.692Z,201.07
2023-05-06T12:22:36.695Z,202.18
2023-05-06T12:23:36.704Z,203.07
2023-05-06T12:24:36.696Z,200.67
2023-05-06T12:25:36.676Z,198.85
2023-05-06T12:26:36.673Z,202.96
2023-05-06T12:27:36.667Z,205.16
2023-05-06T12:28:36.677Z,204.01